Time;durP1;ratioP1;P1;durP2;ratioP2;P2;SDS_P1;SDS_P2;PMS_P1;PMS_P2;Temp;Humidity;BMP_temperature;BMP_pressure;BME280_temperature;BME280_humidity;BME280_pressure;Samples;Min_cycle;Max_cycle;Signal;HPM_P1;HPM_P2
2022/11/25 00:01:12;;;;;;;2.15;0.95;;;8.00;99.90;;;;;;5043663;28;20546;-79
2022/11/25 00:03:39;;;;;;;2.72;0.70;;;8.00;99.90;;;;;;5059868;28;20046;-79
2022/11/25 00:06:10;;;;;;;1.23;0.70;;;8.00;99.90;;;;;;5026896;28;20059;-79
2022/11/25 00:08:37;;;;;;;0.70;0.38;;;7.90;99.90;;;;;;5059595;28;20467;-79
2022/11/25 00:11:04;;;;;;;1.85;0.70;;;8.00;99.90;;;;;;5043344;28;20052;-79
2022/11/25 00:13:31;;;;;;;2.25;0.75;;;8.00;99.90;;;;;;5042620;28;20531;-79
2022/11/25 00:16:06;;;;;;;1.42;0.93;;;8.00;99.90;;;;;;5043195;28;20128;-79
2022/11/25 00:18:33;;;;;;;3.38;1.05;;;8.00;99.90;;;;;;5026000;28;20088;-79
2022/11/25 00:21:07;;;;;;;3.08;0.90;;;8.00;99.90;;;;;;5041382;28;20059;-79
2022/11/25 00:23:34;;;;;;;2.50;1.10;;;8.10;99.90;;;;;;5059405;28;20120;-78
2022/11/25 00:26:14;;;;;;;0.82;0.60;;;8.10;99.90;;;;;;5043465;28;20060;-79
2022/11/25 00:28:42;;;;;;;1.60;1.00;;;8.10;99.90;;;;;;5043480;28;20522;-79
2022/11/25 00:31:10;;;;;;;1.33;0.77;;;8.10;99.90;;;;;;5043380;28;20609;-79
2022/11/25 00:33:38;;;;;;;1.42;0.75;;;8.20;99.90;;;;;;5027030;28;20569;-79
2022/11/25 00:36:05;;;;;;;2.83;0.85;;;8.20;99.90;;;;;;5026428;28;20563;-79
2022/11/25 00:38:32;;;;;;;1.33;0.80;;;8.20;99.90;;;;;;5026585;28;20048;-78
2022/11/25 00:46:30;;;;;;;3.53;1.08;;;8.30;99.90;;;;;;5059897;28;20399;-79
2022/11/25 00:48:57;;;;;;;2.40;1.00;;;8.40;99.90;;;;;;5026518;28;20055;-78
2022/11/25 00:51:23;;;;;;;1.25;0.70;;;8.40;99.90;;;;;;5046458;28;20052;-79
2022/11/25 00:53:50;;;;;;;5.07;1.10;;;8.40;99.90;;;;;;5047012;28;20052;-79
2022/11/25 00:56:24;;;;;;;3.63;1.10;;;8.40;99.90;;;;;;5032084;28;20503;-79
2022/11/25 00:58:51;;;;;;;1.95;0.70;;;8.50;99.90;;;;;;5064444;28;20436;-79
2022/11/25 01:01:18;;;;;;;2.40;0.93;;;8.50;99.90;;;;;;5030613;28;20083;-79
2022/11/25 01:03:48;;;;;;;2.50;1.08;;;8.50;99.90;;;;;;5030583;28;20491;-78
2022/11/25 01:06:14;;;;;;;2.15;0.88;;;8.50;99.90;;;;;;5030071;28;20063;-79
2022/11/25 01:08:41;;;;;;;2.95;1.20;;;8.50;99.90;;;;;;5049664;28;20044;-79
2022/11/25 01:11:10;;;;;;;4.53;1.33;;;8.50;99.90;;;;;;5049612;28;20048;-79
2022/11/25 01:13:37;;;;;;;2.95;1.27;;;8.60;99.90;;;;;;5047816;28;20373;-78
2022/11/25 01:16:04;;;;;;;2.00;0.77;;;8.60;99.90;;;;;;5065237;28;20487;-79
2022/11/25 01:18:32;;;;;;;2.70;1.25;;;8.60;99.90;;;;;;5050042;28;20049;-78
2022/11/25 01:21:06;;;;;;;6.70;1.83;;;8.60;99.90;;;;;;5033060;28;20243;-78
2022/11/25 01:23:33;;;;;;;2.72;1.00;;;8.70;99.90;;;;;;5032855;28;20048;-78
2022/11/25 01:26:02;;;;;;;2.85;0.90;;;8.60;99.90;;;;;;5065942;28;20056;-79
2022/11/25 01:28:28;;;;;;;3.03;1.23;;;8.60;99.90;;;;;;5065379;28;20514;-79
2022/11/25 01:31:05;;;;;;;2.97;1.38;;;8.70;99.90;;;;;;5033499;28;20092;-78
2022/11/25 01:33:32;;;;;;;2.63;1.25;;;8.70;99.90;;;;;;5050008;28;20052;-79
2022/11/25 01:36:03;;;;;;;2.88;1.10;;;8.70;99.90;;;;;;5032975;28;20056;-79
2022/11/25 01:38:30;;;;;;;2.28;1.00;;;8.70;99.90;;;;;;5032677;28;20053;-79
2022/11/25 01:40:57;;;;;;;2.28;1.00;;;8.70;99.90;;;;;;5032985;28;20452;-78
2022/11/25 01:43:24;;;;;;;4.28;1.27;;;8.70;99.90;;;;;;5065270;28;20059;-78
2022/11/25 01:45:52;;;;;;;4.13;1.30;;;8.70;99.90;;;;;;5048779;28;20044;-79
2022/11/25 01:48:27;;;;;;;2.47;1.30;;;8.80;99.90;;;;;;5049096;28;20572;-78
2022/11/25 01:50:54;;;;;;;3.67;0.90;;;8.70;99.90;;;;;;5065108;28;20456;-79
2022/11/25 01:53:20;;;;;;;2.10;1.17;;;8.70;99.90;;;;;;5065543;28;20179;-79
2022/11/25 01:55:52;;;;;;;5.22;1.50;;;8.70;99.90;;;;;;5049160;28;20411;-78
2022/11/25 01:58:31;;;;;;;4.40;1.00;;;8.70;99.90;;;;;;5031993;28;20190;-78
2022/11/25 02:00:58;;;;;;;2.42;1.00;;;8.70;99.90;;;;;;5031757;28;20414;-78
2022/11/25 02:03:31;;;;;;;5.85;1.45;;;8.70;99.90;;;;;;5065685;28;20486;-78
2022/11/25 02:06:09;;;;;;;4.30;1.48;;;8.70;99.90;;;;;;5032398;28;20503;-78
2022/11/25 02:08:36;;;;;;;2.90;1.73;;;8.70;99.90;;;;;;5065381;28;20052;-78
2022/11/25 02:11:03;;;;;;;4.20;1.15;;;8.70;99.90;;;;;;5065000;28;20086;-78
2022/11/25 02:13:31;;;;;;;4.38;1.25;;;8.70;99.90;;;;;;5031521;28;20068;-78
2022/11/25 02:15:57;;;;;;;3.00;1.35;;;8.70;99.90;;;;;;5048713;28;20139;-79
2022/11/25 02:18:24;;;;;;;3.25;1.10;;;8.70;99.90;;;;;;5065101;28;20381;-78
2022/11/25 02:20:52;;;;;;;3.17;1.35;;;8.70;99.90;;;;;;5048160;28;20063;-79
2022/11/25 02:23:30;;;;;;;5.78;1.92;;;8.70;99.90;;;;;;5065971;28;20044;-78
2022/11/25 02:25:56;;;;;;;2.38;1.10;;;8.60;99.90;;;;;;5049892;28;20079;-78
2022/11/25 02:28:25;;;;;;;2.72;0.93;;;8.60;99.90;;;;;;5045745;28;20059;-78
2022/11/25 02:30:52;;;;;;;2.47;1.30;;;8.60;99.90;;;;;;5040883;28;20064;-78
2022/11/25 02:33:19;;;;;;;1.77;0.88;;;8.70;99.90;;;;;;5063640;28;20041;-78
2022/11/25 02:35:52;;;;;;;1.52;1.00;;;8.60;99.90;;;;;;5063003;28;20060;-78
2022/11/25 02:38:44;;;;;;;1.80;1.02;;;8.70;99.90;;;;;;5063457;28;20079;-78
2022/11/25 02:41:37;;;;;;;3.17;1.48;;;8.60;99.90;;;;;;5046619;28;20045;-77
2022/11/25 02:44:04;;;;;;;1.83;1.00;;;8.60;99.90;;;;;;5048852;28;20055;-78
2022/11/25 02:46:31;;;;;;;1.13;0.80;;;8.60;99.90;;;;;;5030493;28;20045;-78
2022/11/25 02:48:58;;;;;;;1.85;0.98;;;8.50;99.90;;;;;;5030161;28;20060;-78
2022/11/25 02:51:43;;;;;;;2.67;1.08;;;8.50;99.90;;;;;;5033896;28;20052;-78
2022/11/25 02:54:11;;;;;;;5.35;1.10;;;8.50;99.90;;;;;;5030080;28;20060;-78
2022/11/25 02:56:39;;;;;;;2.33;0.90;;;8.50;99.90;;;;;;5046214;28;20055;-78
2022/11/25 02:59:05;;;;;;;4.00;1.17;;;8.60;99.90;;;;;;5046552;28;20052;-78
2022/11/25 03:01:33;;;;;;;3.42;1.15;;;8.60;99.90;;;;;;5046411;28;20143;-78
2022/11/25 03:04:01;;;;;;;4.25;1.38;;;8.60;99.90;;;;;;5046704;28;20049;-77
2022/11/25 03:06:28;;;;;;;3.25;0.93;;;8.60;99.90;;;;;;5046428;28;20044;-78
2022/11/25 03:08:55;;;;;;;1.63;1.00;;;8.50;99.90;;;;;;5046110;28;20059;-77
2022/11/25 03:12:17;;;;;;;2.90;1.10;;;8.50;99.90;;;;;;5029974;28;20128;-78
2022/11/25 03:14:08;;;;;;;2.47;1.48;;;8.40;99.90;;;;;;5048004;28;20099;-77
2022/11/25 03:16:35;;;;;;;1.23;0.63;;;8.30;99.90;;;;;;5029636;28;20056;-78
2022/11/25 03:19:02;;;;;;;1.00;0.70;;;8.30;99.90;;;;;;5046398;28;20052;-78
2022/11/25 03:21:29;;;;;;;3.92;1.13;;;8.30;99.90;;;;;;5029305;28;20430;-78
2022/11/25 03:23:55;;;;;;;2.88;1.00;;;8.30;99.90;;;;;;5045920;28;20163;-79
2022/11/25 03:26:24;;;;;;;3.08;1.35;;;8.30;99.90;;;;;;5029697;28;20044;-78
2022/11/25 03:28:51;;;;;;;2.38;1.10;;;8.30;99.90;;;;;;5062182;28;20058;-78
2022/11/25 03:31:18;;;;;;;2.38;0.85;;;8.30;99.90;;;;;;5045706;28;20083;-78
2022/11/25 03:33:45;;;;;;;4.63;1.45;;;8.30;99.90;;;;;;5046151;28;20052;-78
2022/11/25 03:36:11;;;;;;;2.53;1.50;;;8.40;99.90;;;;;;5045559;28;20533;-78
2022/11/25 03:38:38;;;;;;;4.53;1.70;;;8.40;99.90;;;;;;5029698;28;20066;-78
2022/11/25 03:41:05;;;;;;;4.60;1.73;;;8.50;99.90;;;;;;5045055;28;20084;-78
2022/11/25 03:43:34;;;;;;;1.48;0.98;;;8.50;99.90;;;;;;5029351;28;20058;-78
2022/11/25 03:46:01;;;;;;;3.20;1.35;;;8.50;99.90;;;;;;5062291;28;20048;-78
2022/11/25 03:48:27;;;;;;;7.30;1.50;;;8.50;99.90;;;;;;5045841;28;20905;-78
2022/11/25 03:50:54;;;;;;;4.15;1.58;;;8.50;99.90;;;;;;5028820;28;20160;-78
2022/11/25 03:53:21;;;;;;;1.48;0.90;;;8.50;99.90;;;;;;5029269;28;20080;-78
2022/11/25 03:55:48;;;;;;;1.73;0.98;;;8.50;99.90;;;;;;5045252;28;20044;-78
2022/11/25 03:58:15;;;;;;;4.40;1.35;;;8.40;99.90;;;;;;5061511;28;20535;-78
2022/11/25 04:00:42;;;;;;;2.33;1.00;;;8.40;99.90;;;;;;5061953;28;20049;-78
2022/11/25 04:03:09;;;;;;;1.40;0.88;;;8.40;99.90;;;;;;5045353;28;20048;-78
2022/11/25 04:05:36;;;;;;;1.85;0.98;;;8.40;99.90;;;;;;5028854;28;20044;-78
2022/11/25 04:08:02;;;;;;;4.10;1.02;;;8.40;99.90;;;;;;5045308;28;20486;-78
2022/11/25 04:10:29;;;;;;;1.38;0.57;;;8.30;99.90;;;;;;5062255;28;20048;-78
2022/11/25 04:12:56;;;;;;;0.90;0.63;;;8.30;99.90;;;;;;5044618;28;20044;-78
2022/11/25 04:15:22;;;;;;;1.85;0.73;;;8.20;99.90;;;;;;5063162;28;20092;-78
2022/11/25 04:17:49;;;;;;;1.05;0.65;;;8.30;99.90;;;;;;5061796;28;20052;-78
2022/11/25 04:20:16;;;;;;;2.30;1.17;;;8.20;99.90;;;;;;5028534;28;20059;-78
2022/11/25 04:22:43;;;;;;;2.38;0.80;;;8.20;99.90;;;;;;5062269;28;20615;-78
2022/11/25 04:25:09;;;;;;;2.42;1.00;;;8.30;99.90;;;;;;5049082;28;20048;-78
2022/11/25 04:27:36;;;;;;;1.73;0.88;;;8.20;99.90;;;;;;5065069;28;20057;-79
2022/11/25 04:30:04;;;;;;;3.55;1.00;;;8.20;99.90;;;;;;5049911;28;20045;-78
2022/11/25 04:32:31;;;;;;;3.08;1.05;;;8.30;99.90;;;;;;5065490;28;20052;-78
2022/11/25 04:34:58;;;;;;;3.10;1.15;;;8.30;99.90;;;;;;5067607;28;20132;-78
2022/11/25 04:37:24;;;;;;;1.15;0.77;;;8.20;99.90;;;;;;5049426;28;20052;-78
2022/11/25 04:39:51;;;;;;;3.17;0.82;;;8.20;99.90;;;;;;5065703;28;20045;-78
2022/11/25 04:42:30;;;;;;;1.38;0.80;;;8.20;99.90;;;;;;5064870;28;20613;-78
2022/11/25 04:44:58;;;;;;;2.58;0.82;;;8.20;99.90;;;;;;5066069;28;20055;-78
2022/11/25 04:47:45;;;;;;;2.15;1.10;;;8.20;99.90;;;;;;5038721;28;20040;-78
2022/11/25 04:50:14;;;;;;;2.60;1.08;;;8.30;99.90;;;;;;5065574;28;20484;-79
2022/11/25 04:52:41;;;;;;;3.35;1.50;;;8.30;99.90;;;;;;5049039;28;20045;-78
2022/11/25 04:55:09;;;;;;;1.77;1.00;;;8.30;99.90;;;;;;5065404;28;20063;-78
2022/11/25 04:57:36;;;;;;;1.85;0.80;;;8.30;99.90;;;;;;5048681;28;20049;-78
2022/11/25 05:00:03;;;;;;;1.20;0.75;;;8.30;99.90;;;;;;5032556;28;20142;-78
2022/11/25 05:02:30;;;;;;;1.92;0.82;;;8.30;99.90;;;;;;5031765;28;20169;-78
2022/11/25 05:04:57;;;;;;;3.28;1.08;;;8.30;99.90;;;;;;5048976;28;20110;-78
2022/11/25 05:07:24;;;;;;;2.83;1.15;;;8.30;99.90;;;;;;5032555;28;20444;-78
2022/11/25 05:09:51;;;;;;;1.92;0.80;;;8.30;99.90;;;;;;5032380;28;20164;-78
2022/11/25 05:12:19;;;;;;;2.72;1.10;;;8.20;99.90;;;;;;5031925;28;20049;-78
2022/11/25 05:14:46;;;;;;;3.40;1.20;;;8.20;99.90;;;;;;5065538;28;20055;-79
2022/11/25 05:17:18;;;;;;;2.33;0.90;;;8.20;99.90;;;;;;5032247;28;20127;-79
2022/11/25 05:19:45;;;;;;;1.55;1.00;;;8.20;99.90;;;;;;5048621;28;20356;-78
2022/11/25 05:22:13;;;;;;;1.45;0.90;;;8.20;99.90;;;;;;5032190;28;20052;-78
2022/11/25 05:24:39;;;;;;;2.95;0.80;;;8.20;99.90;;;;;;5048950;28;20040;-78
2022/11/25 05:27:06;;;;;;;1.75;0.75;;;8.20;99.90;;;;;;5064682;28;20348;-78
2022/11/25 05:29:33;;;;;;;1.23;0.90;;;8.20;99.90;;;;;;5048020;28;20134;-77
2022/11/25 05:32:00;;;;;;;3.20;0.82;;;8.20;99.90;;;;;;5064773;28;21212;-78
2022/11/25 05:34:27;;;;;;;2.53;0.88;;;8.20;99.90;;;;;;5065328;28;20393;-78
2022/11/25 05:36:53;;;;;;;4.85;1.23;;;8.20;99.90;;;;;;5065257;28;20128;-78
2022/11/25 05:39:20;;;;;;;2.95;1.00;;;8.20;99.90;;;;;;5064710;28;20044;-78
2022/11/25 05:41:47;;;;;;;1.65;0.80;;;8.20;99.90;;;;;;5065154;28;20062;-78
2022/11/25 05:44:14;;;;;;;3.47;0.98;;;8.10;99.90;;;;;;5047462;28;20175;-79
2022/11/25 05:46:48;;;;;;;4.70;1.35;;;8.10;99.90;;;;;;5048961;28;20513;-78
2022/11/25 05:49:15;;;;;;;2.53;1.52;;;8.20;99.90;;;;;;5048356;28;20095;-78
2022/11/25 05:51:42;;;;;;;2.42;1.15;;;8.20;99.90;;;;;;5063889;28;20048;-78
2022/11/25 05:54:08;;;;;;;2.55;1.15;;;8.20;99.90;;;;;;5048031;28;20075;-78
2022/11/25 05:56:35;;;;;;;1.75;0.70;;;8.20;99.90;;;;;;5064134;28;20057;-79
2022/11/25 05:59:02;;;;;;;2.15;0.80;;;8.20;99.90;;;;;;5063488;28;20044;-77
2022/11/25 06:01:29;;;;;;;2.38;0.98;;;8.20;99.90;;;;;;5046933;28;20049;-78
2022/11/25 06:03:59;;;;;;;2.75;1.00;;;8.20;99.90;;;;;;5043040;28;20041;-78
2022/11/25 06:06:26;;;;;;;1.45;0.77;;;8.20;99.90;;;;;;5034817;28;20529;-78
2022/11/25 06:08:53;;;;;;;3.20;1.05;;;8.10;99.90;;;;;;5054198;28;20045;-78
2022/11/25 06:11:20;;;;;;;1.48;0.80;;;8.10;99.90;;;;;;5059758;28;20052;-78
2022/11/25 06:13:46;;;;;;;1.60;0.73;;;8.00;99.90;;;;;;5058786;28;20050;-79
2022/11/25 06:16:16;;;;;;;1.90;1.50;;;8.00;99.90;;;;;;5054402;28;20054;-78
2022/11/25 06:18:43;;;;;;;1.15;0.90;;;8.00;99.90;;;;;;5054318;28;20056;-79
2022/11/25 06:21:10;;;;;;;1.00;0.50;;;8.00;99.90;;;;;;5037431;28;20052;-78
2022/11/25 06:23:37;;;;;;;1.35;0.70;;;7.90;99.90;;;;;;5054636;28;20048;-78
2022/11/25 06:26:04;;;;;;;1.65;0.70;;;7.90;99.90;;;;;;5038730;28;20541;-74
2022/11/25 06:28:30;;;;;;;1.30;0.90;;;7.80;99.90;;;;;;5051897;28;20423;-72
2022/11/25 06:31:10;;;;;;;1.17;0.77;;;7.80;99.90;;;;;;5051005;28;20148;-72
2022/11/25 06:33:37;;;;;;;2.08;1.02;;;7.80;99.90;;;;;;5055041;28;20470;-75
2022/11/25 06:36:04;;;;;;;2.65;1.38;;;7.80;99.90;;;;;;5018255;28;20072;-74
2022/11/25 06:38:31;;;;;;;2.58;0.77;;;7.80;99.90;;;;;;5049426;28;20227;-74
2022/11/25 06:41:01;;;;;;;0.80;0.63;;;7.90;99.90;;;;;;5053007;28;20132;-75
2022/11/25 06:43:28;;;;;;;1.65;0.70;;;7.90;99.90;;;;;;5052981;28;20079;-75
2022/11/25 06:46:01;;;;;;;2.65;1.00;;;7.90;99.90;;;;;;5057378;28;20481;-75
2022/11/25 06:48:28;;;;;;;3.75;1.70;;;8.00;99.90;;;;;;5044899;28;20571;-76
2022/11/25 06:50:56;;;;;;;2.25;1.02;;;8.00;99.90;;;;;;5044288;28;20160;-76
2022/11/25 06:53:23;;;;;;;5.80;1.15;;;8.10;99.90;;;;;;5027345;28;20059;-76
2022/11/25 06:56:01;;;;;;;3.30;1.10;;;8.10;99.90;;;;;;5059702;28;20255;-76
2022/11/25 06:58:29;;;;;;;2.13;0.80;;;8.10;99.90;;;;;;5060153;28;20048;-76
2022/11/25 07:01:18;;;;;;;3.38;1.20;;;8.10;99.90;;;;;;5044834;28;20107;-75
2022/11/25 07:03:46;;;;;;;3.75;1.00;;;8.20;99.90;;;;;;5035673;28;20058;-78
2022/11/25 07:06:13;;;;;;;3.33;0.93;;;8.20;99.90;;;;;;5056394;28;20056;-78
2022/11/25 07:08:40;;;;;;;2.38;1.10;;;8.20;99.90;;;;;;5042051;28;20399;-75
2022/11/25 07:11:11;;;;;;;1.38;0.80;;;8.20;99.90;;;;;;5057195;28;20044;-75
2022/11/25 07:13:38;;;;;;;3.13;0.98;;;8.20;99.90;;;;;;5058257;28;20052;-74
2022/11/25 07:16:05;;;;;;;2.10;0.73;;;8.20;99.90;;;;;;5025291;28;20223;-75
2022/11/25 07:18:33;;;;;;;3.00;1.52;;;8.20;99.90;;;;;;5042315;28;20097;-75
2022/11/25 07:21:07;;;;;;;1.35;0.88;;;8.20;99.90;;;;;;5041787;28;20056;-75
2022/11/25 07:23:34;;;;;;;3.30;1.20;;;8.20;99.90;;;;;;5042213;28;20064;-75
2022/11/25 07:26:09;;;;;;;4.65;1.45;;;8.20;99.90;;;;;;5042490;28;20056;-75
2022/11/25 07:28:36;;;;;;;1.67;0.80;;;8.20;99.90;;;;;;5041927;28;20150;-74
2022/11/25 07:31:18;;;;;;;2.25;0.90;;;8.20;99.90;;;;;;5043202;28;20048;-74
2022/11/25 07:34:03;;;;;;;3.22;1.33;;;8.10;99.90;;;;;;5059532;28;20471;-75
2022/11/25 07:36:30;;;;;;;1.92;0.98;;;8.10;99.90;;;;;;5027611;28;20132;-74
2022/11/25 07:38:58;;;;;;;2.35;0.90;;;8.10;99.90;;;;;;5043226;28;20146;-75
2022/11/25 07:41:25;;;;;;;2.45;1.02;;;8.20;99.90;;;;;;5042927;28;20048;-74
2022/11/25 07:43:54;;;;;;;2.45;0.85;;;8.10;99.90;;;;;;5042695;28;20056;-75
2022/11/25 07:46:23;;;;;;;1.42;0.90;;;8.10;99.90;;;;;;5026358;28;20452;-75
2022/11/25 07:48:54;;;;;;;2.00;0.95;;;8.10;99.90;;;;;;5059620;28;20094;-75
2022/11/25 07:51:29;;;;;;;1.88;0.80;;;8.10;99.90;;;;;;5042227;28;20048;-74
2022/11/25 07:53:56;;;;;;;1.10;0.60;;;8.10;99.90;;;;;;5042937;28;20074;-74
2022/11/25 07:56:23;;;;;;;1.65;0.90;;;8.10;99.90;;;;;;5042642;28;20088;-75
2022/11/25 07:58:50;;;;;;;1.77;0.95;;;8.10;99.90;;;;;;5041838;28;20059;-75
2022/11/25 08:01:17;;;;;;;2.67;1.13;;;8.10;99.90;;;;;;5024475;28;20128;-75
2022/11/25 08:03:45;;;;;;;2.13;0.70;;;8.10;99.90;;;;;;5025294;28;20462;-74
2022/11/25 08:06:14;;;;;;;4.05;0.90;;;8.10;99.90;;;;;;5059437;28;20060;-75
2022/11/25 08:08:41;;;;;;;2.63;0.85;;;8.10;99.90;;;;;;5059918;28;20131;-74
2022/11/25 08:11:09;;;;;;;2.50;1.00;;;8.10;99.90;;;;;;5059269;28;20218;-75
2022/11/25 08:13:36;;;;;;;2.58;0.95;;;8.00;99.90;;;;;;5058844;28;20083;-74
2022/11/25 08:16:03;;;;;;;2.25;1.00;;;8.10;99.90;;;;;;5026325;28;20048;-74
2022/11/25 08:18:30;;;;;;;2.65;0.93;;;8.10;99.90;;;;;;5043071;28;20044;-74
2022/11/25 08:21:00;;;;;;;1.48;0.98;;;8.10;99.90;;;;;;5043159;28;20074;-75
2022/11/25 08:23:27;;;;;;;3.55;0.85;;;8.10;99.90;;;;;;5059132;28;20438;-75
2022/11/25 08:25:54;;;;;;;1.90;1.02;;;8.10;99.90;;;;;;5060650;28;20464;-75
2022/11/25 08:28:20;;;;;;;1.95;0.80;;;8.10;99.90;;;;;;5042792;28;20319;-75
2022/11/25 08:30:47;;;;;;;3.92;1.23;;;8.20;99.90;;;;;;5043439;28;20052;-75
2022/11/25 08:33:14;;;;;;;10.40;3.22;;;8.20;99.90;;;;;;5062715;28;20056;-75
2022/11/25 08:35:41;;;;;;;2.28;1.20;;;8.30;99.90;;;;;;5046456;28;20392;-75
2022/11/25 08:38:08;;;;;;;2.88;1.40;;;8.30;99.90;;;;;;5046374;28;20091;-74
2022/11/25 08:40:35;;;;;;;2.08;0.90;;;8.30;99.90;;;;;;5047157;28;20053;-73
2022/11/25 08:43:02;;;;;;;3.53;1.25;;;8.40;99.90;;;;;;5029089;28;20143;-74
2022/11/25 08:45:29;;;;;;;3.55;1.27;;;8.40;99.90;;;;;;5046709;28;20044;-75
2022/11/25 08:47:56;;;;;;;4.65;1.30;;;8.40;99.90;;;;;;5065003;28;20059;-74
2022/11/25 08:50:24;;;;;;;4.40;1.38;;;8.40;99.90;;;;;;5046164;28;20140;-74
2022/11/25 08:52:50;;;;;;;3.00;1.27;;;8.40;99.90;;;;;;5062765;28;20491;-74
2022/11/25 08:55:17;;;;;;;7.65;1.67;;;8.40;99.90;;;;;;5047095;28;20148;-74
2022/11/25 08:57:44;;;;;;;3.88;1.30;;;8.50;99.90;;;;;;5045658;28;20040;-74
2022/11/25 09:00:11;;;;;;;5.57;1.23;;;8.50;99.90;;;;;;5063541;28;20138;-74
2022/11/25 09:02:38;;;;;;;2.72;1.33;;;8.60;99.90;;;;;;5045476;28;20443;-74
2022/11/25 09:05:05;;;;;;;3.08;1.20;;;8.60;99.90;;;;;;5046695;28;20142;-74
2022/11/25 09:07:31;;;;;;;4.25;1.77;;;8.70;99.90;;;;;;5063352;28;20132;-74
2022/11/25 09:09:58;;;;;;;2.72;0.98;;;8.70;99.90;;;;;;5064804;28;20040;-74
2022/11/25 09:12:25;;;;;;;2.75;1.23;;;8.70;99.90;;;;;;5066831;28;20518;-74
2022/11/25 09:14:51;;;;;;;2.72;0.93;;;8.80;99.90;;;;;;5068064;28;20535;-74
2022/11/25 09:17:18;;;;;;;4.13;1.23;;;8.80;99.90;;;;;;5067820;28;20438;-74
2022/11/25 09:19:45;;;;;;;3.92;1.67;;;8.80;99.90;;;;;;5066254;28;20131;-74
2022/11/25 09:22:11;;;;;;;3.13;1.15;;;8.80;99.90;;;;;;5066853;28;20535;-74
2022/11/25 09:24:40;;;;;;;5.35;1.92;;;8.90;99.90;;;;;;5067704;28;20049;-75
2022/11/25 09:27:07;;;;;;;5.30;1.88;;;8.90;99.90;;;;;;5066145;28;20383;-74
2022/11/25 09:29:33;;;;;;;4.15;1.55;;;9.00;99.90;;;;;;5065520;28;20071;-74
2022/11/25 09:32:01;;;;;;;4.20;1.55;;;9.00;99.90;;;;;;5066364;28;20043;-74
2022/11/25 09:34:27;;;;;;;3.65;1.58;;;9.00;99.90;;;;;;5065992;28;20139;-74
2022/11/25 09:36:54;;;;;;;5.78;1.67;;;9.00;99.90;;;;;;5066991;28;20102;-74
2022/11/25 09:39:22;;;;;;;6.13;1.75;;;9.10;99.90;;;;;;5066422;28;20056;-74
2022/11/25 09:48:32;;;;;;;3.55;1.60;;;9.10;99.90;;;;;;5066929;28;20135;-74
2022/11/25 09:51:17;;;;;;;5.68;1.95;;;9.20;99.90;;;;;;5048038;28;20059;-74
2022/11/25 09:54:01;;;;;;;4.45;1.58;;;9.20;99.90;;;;;;5066149;28;20086;-74
2022/11/25 09:56:40;;;;;;;;;;;9.30;99.90;;;;;;5050087;28;20078;-74
2022/11/25 09:59:14;;;;;;;3.55;1.40;;;9.30;99.90;;;;;;5060873;28;20300;-73
2022/11/25 10:01:50;;;;;;;3.78;1.45;;;9.40;99.90;;;;;;5058177;28;20139;-73
2022/11/25 10:04:33;;;;;;;2.78;1.63;;;9.40;99.90;;;;;;5041554;28;20117;-73
2022/11/25 10:07:01;;;;;;;3.33;1.20;;;9.40;99.90;;;;;;5057363;28;20135;-72
2022/11/25 10:09:30;;;;;;;3.70;1.30;;;9.50;99.90;;;;;;5040714;28;20194;-73
2022/11/25 10:12:18;;;;;;;3.13;1.63;;;9.50;99.90;;;;;;5040440;28;20049;-73
2022/11/25 10:14:48;;;;;;;4.85;1.45;;;9.60;99.90;;;;;;5021605;28;20055;-73
2022/11/25 10:17:40;;;;;;;2.40;1.30;;;9.60;99.90;;;;;;5044264;28;20163;-72
2022/11/25 10:20:14;;;;;;;3.08;0.90;;;9.60;99.90;;;;;;5046048;28;20054;-73
2022/11/25 10:22:45;;;;;;;4.38;1.25;;;9.70;99.90;;;;;;5068487;28;20379;-73
2022/11/25 10:25:21;;;;;;;6.85;1.90;;;9.70;99.90;;;;;;5042592;28;20131;-73
2022/11/25 10:28:02;;;;;;;3.55;1.20;;;9.80;99.90;;;;;;5052829;28;20156;-73
2022/11/25 10:30:38;;;;;;;4.53;1.77;;;9.80;99.90;;;;;;5040704;28;20070;-73
2022/11/25 10:33:21;;;;;;;4.32;1.50;;;9.80;99.90;;;;;;5042545;28;20079;-73
2022/11/25 10:35:59;;;;;;;3.80;1.25;;;9.90;99.90;;;;;;5060845;28;20070;-74
2022/11/25 10:38:38;;;;;;;2.85;1.30;;;10.00;99.90;;;;;;5056451;28;20052;-74
2022/11/25 10:41:05;;;;;;;5.40;2.67;;;10.00;99.90;;;;;;5058942;28;20052;-73
2022/11/25 10:43:31;;;;;;;4.95;1.50;;;10.10;99.90;;;;;;5059385;28;20439;-73
2022/11/25 10:46:30;;;;;;;3.85;1.50;;;10.10;99.90;;;;;;5059524;28;20118;-73
2022/11/25 10:49:33;;;;;;;5.82;1.80;;;10.20;99.90;;;;;;5059900;28;20105;-73
2022/11/25 10:51:59;;;;;;;2.85;1.52;;;10.30;99.90;;;;;;5059849;28;20133;-72
2022/11/25 10:54:27;;;;;;;3.08;1.27;;;10.30;99.90;;;;;;5059159;28;20066;-72
2022/11/25 10:56:58;;;;;;;4.68;1.40;;;10.40;99.90;;;;;;5058230;28;20103;-72
2022/11/25 10:59:29;;;;;;;7.28;2.17;;;10.40;99.90;;;;;;5058170;28;20428;-72
2022/11/25 11:02:17;;;;;;;2.80;1.00;;;10.40;99.90;;;;;;5058027;28;20097;-73
2022/11/25 11:04:52;;;;;;;3.25;1.00;;;10.50;99.90;;;;;;5054909;28;20048;-73
2022/11/25 11:07:19;;;;;;;2.60;0.93;;;10.60;99.90;;;;;;5058737;28;20060;-72
2022/11/25 11:09:47;;;;;;;2.75;1.00;;;10.60;99.90;;;;;;5059158;28;20143;-72
2022/11/25 11:12:23;;;;;;;3.15;1.40;;;10.60;99.90;;;;;;5027334;28;20408;-72
2022/11/25 11:14:50;;;;;;;2.47;1.48;;;10.70;99.90;;;;;;5044655;28;20514;-72
2022/11/25 11:17:29;;;;;;;2.88;1.15;;;10.70;99.90;;;;;;5059740;28;20498;-73
2022/11/25 11:20:08;;;;;;;2.58;1.13;;;10.80;99.90;;;;;;5059567;28;20052;-73
2022/11/25 11:22:36;;;;;;;5.32;1.35;;;10.80;99.90;;;;;;5065903;28;20543;-73
2022/11/25 11:25:18;;;;;;;2.53;1.10;;;10.90;99.90;;;;;;5060711;28;20139;-73
2022/11/25 11:27:45;;;;;;;3.53;1.85;;;11.00;99.90;;;;;;5059342;28;20391;-73
2022/11/25 11:30:20;;;;;;;3.97;1.42;;;11.00;99.90;;;;;;5051541;28;20140;-73
2022/11/25 11:33:04;;;;;;;3.55;1.83;;;11.10;99.90;;;;;;5059185;28;20044;-72
2022/11/25 11:35:57;;;;;;;2.97;1.15;;;11.10;99.90;;;;;;5051552;28;20062;-72
2022/11/25 11:38:35;;;;;;;3.88;1.92;;;11.20;99.90;;;;;;5064015;28;20484;-73
2022/11/25 11:41:40;;;;;;;2.05;1.13;;;11.20;99.90;;;;;;5043046;28;20166;-75
2022/11/25 11:44:31;;;;;;;3.65;1.38;;;11.30;99.90;;;;;;5026714;28;20480;-73
2022/11/25 11:47:00;;;;;;;3.15;1.42;;;11.30;99.90;;;;;;5071924;28;20071;-73
2022/11/25 11:49:45;;;;;;;2.90;1.48;;;11.40;99.90;;;;;;5065242;28;20111;-75
2022/11/25 11:52:26;;;;;;;3.67;1.35;;;11.40;99.90;;;;;;5044586;28;20048;-75
2022/11/25 11:54:55;;;;;;;4.15;1.80;;;11.60;99.90;;;;;;5067658;28;20044;-75
2022/11/25 11:57:37;;;;;;;3.35;1.52;;;11.70;99.90;;;;;;5059619;28;20218;-73
2022/11/25 12:00:09;;;;;;;3.03;1.08;;;11.80;99.90;;;;;;5048242;28;20120;-72
2022/11/25 12:03:02;;;;;;;3.58;1.58;;;12.00;99.90;;;;;;5040150;28;20171;-73
2022/11/25 12:05:30;;;;;;;5.22;2.03;;;12.10;99.90;;;;;;5062174;28;20095;-76
2022/11/25 12:08:11;;;;;;;3.30;1.70;;;11.20;99.90;;;;;;5077437;28;20052;-73
2022/11/25 12:10:43;;;;;;;3.83;2.00;;;10.60;99.90;;;;;;5056223;28;20076;-73
2022/11/25 12:13:29;;;;;;;4.32;2.05;;;10.30;99.90;;;;;;5067893;28;20380;-73
2022/11/25 12:16:08;;;;;;;4.22;1.80;;;10.00;99.90;;;;;;5059640;28;20052;-73
2022/11/25 12:19:12;;;;;;;5.75;1.85;;;9.90;99.90;;;;;;5060192;28;20454;-73
2022/11/25 12:22:20;;;;;;;2.83;1.50;;;9.90;99.90;;;;;;5059176;28;20098;-73
2022/11/25 12:25:07;;;;;;;4.45;1.90;;;10.00;99.90;;;;;;5070035;28;20075;-79
2022/11/25 12:27:38;;;;;;;3.08;1.45;;;10.20;99.90;;;;;;5059991;28;20048;-79
2022/11/25 12:30:14;;;;;;;4.25;1.77;;;10.40;99.90;;;;;;5058303;28;20253;-79
2022/11/25 12:32:50;;;;;;;3.25;1.33;;;10.60;99.90;;;;;;5056520;28;20060;-79
2022/11/25 12:35:31;;;;;;;5.80;2.13;;;10.80;99.90;;;;;;5036586;28;20131;-79
2022/11/25 12:38:33;;;;;;;3.42;1.70;;;10.90;99.90;;;;;;5044601;28;20037;-79
2022/11/25 12:41:15;;;;;;;3.05;1.42;;;11.10;99.90;;;;;;5037811;28;20115;-79
2022/11/25 12:43:49;;;;;;;2.65;1.10;;;11.30;99.90;;;;;;5058558;28;20082;-78
2022/11/25 12:46:19;;;;;;;2.83;1.55;;;11.50;99.90;;;;;;5057787;28;20076;-78
2022/11/25 12:48:46;;;;;;;2.88;1.38;;;11.60;99.90;;;;;;5077962;28;20233;-78
2022/11/25 12:51:24;;;;;;;4.32;1.88;;;11.80;99.90;;;;;;5061329;28;20059;-78
2022/11/25 12:54:34;;;;;;;4.60;1.85;;;11.90;99.90;;;;;;5059400;28;20071;-79
2022/11/25 12:57:29;;;;;;;3.47;1.80;;;12.10;99.90;;;;;;5067456;28;20491;-78
2022/11/25 13:00:20;;;;;;;4.03;2.55;;;12.30;99.90;;;;;;5071018;28;20036;-78
2022/11/25 13:03:18;;;;;;;5.20;2.10;;;12.40;99.90;;;;;;5071287;28;20216;-77
2022/11/25 13:05:48;;;;;;;6.65;1.92;;;12.60;99.90;;;;;;5069485;28;20048;-78
2022/11/25 13:08:22;;;;;;;4.70;1.90;;;12.70;99.90;;;;;;5079008;28;20406;-79
2022/11/25 13:11:20;;;;;;;3.58;1.63;;;12.90;99.90;;;;;;5040375;28;20051;-78
2022/11/25 13:13:56;;;;;;;2.47;1.63;;;13.10;99.90;;;;;;5064177;28;20048;-78
2022/11/25 13:16:23;;;;;;;3.05;1.45;;;13.30;99.90;;;;;;5081920;28;20051;-79
2022/11/25 13:18:51;;;;;;;5.07;1.85;;;13.50;99.90;;;;;;5066370;28;20056;-78
2022/11/25 13:21:18;;;;;;;2.03;1.23;;;13.50;99.90;;;;;;5052394;28;20060;-73
2022/11/25 13:24:08;;;;;;;3.55;1.85;;;13.60;99.90;;;;;;5037713;28;20048;-74
2022/11/25 13:26:36;;;;;;;4.85;1.80;;;13.80;99.90;;;;;;5055842;28;20273;-74
2022/11/25 13:29:27;;;;;;;3.63;1.80;;;13.90;99.90;;;;;;5043759;28;20410;-74